Time;durP1;ratioP1;P1;durP2;ratioP2;P2;SDS_P1;SDS_P2;PMS_P1;PMS_P2;Temp;Humidity;BMP_temperature;BMP_pressure;BME280_temperature;BME280_humidity;BME280_pressure;Samples;Min_cycle;Max_cycle;Signal;HPM_P1;HPM_P2
2021/07/10 00:02:03;;;;;;;20.67;16.83;;;15.50;99.90;;;;;;5010082;28;20476;-68
2021/07/10 00:04:29;;;;;;;22.00;16.08;;;15.60;99.90;;;;;;5028363;28;20105;-67
2021/07/10 00:07:00;;;;;;;21.23;15.85;;;15.60;99.90;;;;;;5043069;28;20034;-67
2021/07/10 00:09:26;;;;;;;18.73;16.00;;;15.60;99.90;;;;;;5059246;28;20108;-67
2021/07/10 00:11:52;;;;;;;19.48;15.93;;;15.60;99.90;;;;;;5029774;28;20557;-67
2021/07/10 00:14:20;;;;;;;19.85;16.73;;;15.60;99.90;;;;;;5029143;28;20051;-67
2021/07/10 00:16:48;;;;;;;21.88;18.13;;;15.50;99.90;;;;;;5027737;28;20739;-67
2021/07/10 00:19:14;;;;;;;21.00;17.02;;;15.60;99.90;;;;;;5028479;28;20037;-68
2021/07/10 00:21:39;;;;;;;22.63;17.60;;;15.50;99.90;;;;;;4994943;28;20044;-67
2021/07/10 00:24:07;;;;;;;19.92;16.33;;;15.50;99.90;;;;;;5027344;28;20076;-67
2021/07/10 00:26:33;;;;;;;23.20;17.50;;;15.50;99.90;;;;;;5027039;28;20032;-68
2021/07/10 00:28:59;;;;;;;22.55;18.30;;;15.50;99.90;;;;;;5026063;28;20034;-67
2021/07/10 00:31:25;;;;;;;26.80;20.42;;;15.50;99.90;;;;;;5026034;28;20053;-67
2021/07/10 00:33:55;;;;;;;21.88;17.80;;;15.50;99.90;;;;;;5027748;28;20109;-68
2021/07/10 00:36:21;;;;;;;20.77;16.77;;;15.50;99.90;;;;;;5028156;28;20025;-68
2021/07/10 00:38:49;;;;;;;30.20;18.92;;;15.50;99.90;;;;;;5025512;28;20048;-67
2021/07/10 00:41:15;;;;;;;24.40;19.55;;;15.50;99.90;;;;;;5026715;28;20090;-68
2021/07/10 00:43:43;;;;;;;24.40;18.88;;;15.50;99.90;;;;;;5026411;28;20475;-68
2021/07/10 00:46:08;;;;;;;22.92;17.83;;;15.50;99.90;;;;;;5024422;28;20033;-67
2021/07/10 00:48:34;;;;;;;22.25;16.95;;;15.50;99.90;;;;;;5026849;28;20056;-67
2021/07/10 00:51:01;;;;;;;24.08;18.65;;;15.50;99.90;;;;;;5026177;28;20048;-67
2021/07/10 00:53:29;;;;;;;23.55;19.50;;;15.50;99.90;;;;;;5027308;28;20037;-67
2021/07/10 00:55:54;;;;;;;22.77;17.52;;;15.50;99.90;;;;;;5026126;28;20024;-67
2021/07/10 00:58:20;;;;;;;21.70;17.70;;;15.40;99.90;;;;;;5008100;28;20037;-68
2021/07/10 01:00:46;;;;;;;21.40;17.52;;;15.50;99.90;;;;;;5025336;28;20470;-68
2021/07/10 01:03:14;;;;;;;22.38;17.77;;;15.50;99.90;;;;;;4997537;28;20805;-68
2021/07/10 01:05:39;;;;;;;22.63;17.40;;;15.50;99.90;;;;;;5058304;28;20025;-67
2021/07/10 01:08:10;;;;;;;24.08;19.10;;;15.50;99.90;;;;;;5026449;28;20043;-67
2021/07/10 01:10:38;;;;;;;22.75;17.95;;;15.40;99.90;;;;;;5025189;28;20099;-68
2021/07/10 01:13:03;;;;;;;23.17;18.95;;;15.40;99.90;;;;;;5040853;28;20037;-68
2021/07/10 01:15:29;;;;;;;20.15;17.33;;;15.40;99.90;;;;;;5024858;28;20033;-67
2021/07/10 01:17:58;;;;;;;23.90;18.70;;;15.40;99.90;;;;;;4332116;28;10000795;-67
2021/07/10 01:20:27;;;;;;;23.98;18.17;;;15.40;99.90;;;;;;5024929;28;20120;-68
2021/07/10 01:22:53;;;;;;;25.63;19.50;;;15.40;99.90;;;;;;5025621;28;20088;-68
2021/07/10 01:25:22;;;;;;;26.13;20.20;;;15.40;99.90;;;;;;5025918;28;20021;-68
2021/07/10 01:27:55;;;;;;;22.25;17.48;;;15.30;99.90;;;;;;5026415;28;21834;-68
2021/07/10 01:30:23;;;;;;;25.48;19.70;;;15.30;99.90;;;;;;5026214;28;20039;-67
2021/07/10 01:32:52;;;;;;;26.02;20.65;;;15.30;99.90;;;;;;5024336;28;20033;-67
2021/07/10 01:35:20;;;;;;;23.40;17.52;;;15.30;99.90;;;;;;5024473;28;20163;-67
2021/07/10 01:37:48;;;;;;;23.25;18.77;;;15.30;99.90;;;;;;5025998;28;20636;-68
2021/07/10 01:40:17;;;;;;;24.55;19.10;;;15.30;99.90;;;;;;5026171;28;20117;-67
2021/07/10 01:42:43;;;;;;;21.85;18.30;;;15.30;99.90;;;;;;5026226;28;20041;-68
2021/07/10 01:45:09;;;;;;;26.98;20.08;;;15.30;99.90;;;;;;5024945;28;20039;-68
2021/07/10 01:47:35;;;;;;;22.63;18.75;;;15.20;99.90;;;;;;5024214;28;20036;-67
2021/07/10 01:50:01;;;;;;;23.08;19.30;;;15.20;99.90;;;;;;5026646;28;20551;-68
2021/07/10 01:52:26;;;;;;;26.38;20.77;;;15.20;99.90;;;;;;5024185;28;20033;-67
2021/07/10 01:54:52;;;;;;;26.33;21.00;;;15.20;99.90;;;;;;5024412;28;20036;-68
2021/07/10 01:57:20;;;;;;;28.17;21.75;;;15.10;99.90;;;;;;5025133;28;20374;-68
2021/07/10 01:59:45;;;;;;;23.60;18.95;;;15.10;99.90;;;;;;5026440;28;20030;-67
2021/07/10 02:02:13;;;;;;;23.77;19.05;;;15.20;99.90;;;;;;5024440;28;20854;-67
2021/07/10 02:04:47;;;;;;;26.35;19.60;;;15.10;99.90;;;;;;5026388;28;20029;-68
2021/07/10 02:07:17;;;;;;;23.30;18.55;;;15.10;99.90;;;;;;5024110;28;20025;-67
2021/07/10 02:09:43;;;;;;;22.92;19.38;;;15.00;99.90;;;;;;5009337;28;20083;-68
2021/07/10 02:12:12;;;;;;;26.48;18.42;;;15.00;99.90;;;;;;5040701;28;20029;-67
2021/07/10 02:14:40;;;;;;;23.10;19.88;;;15.00;99.90;;;;;;5024859;28;20068;-67
2021/07/10 02:17:06;;;;;;;23.90;19.85;;;15.00;99.90;;;;;;5024636;28;20021;-67
2021/07/10 02:19:36;;;;;;;21.70;18.35;;;15.00;99.90;;;;;;5025528;28;20119;-67
2021/07/10 02:22:08;;;;;;;20.90;18.70;;;14.90;99.90;;;;;;5040888;28;20088;-67
2021/07/10 02:24:36;;;;;;;23.95;17.80;;;14.90;99.90;;;;;;5023386;28;20029;-67
2021/07/10 02:27:04;;;;;;;24.13;18.45;;;14.90;99.90;;;;;;5026047;28;20037;-69
2021/07/10 02:29:34;;;;;;;20.15;18.02;;;14.80;99.90;;;;;;5027232;28;20394;-68
2021/07/10 02:32:02;;;;;;;26.13;19.90;;;14.90;99.90;;;;;;5030509;28;20127;-67
2021/07/10 02:34:30;;;;;;;26.25;20.70;;;14.80;99.90;;;;;;5029869;28;20032;-66
2021/07/10 02:36:58;;;;;;;26.38;19.67;;;14.80;99.90;;;;;;5031205;28;20152;-67
2021/07/10 02:39:26;;;;;;;26.05;20.35;;;14.80;99.90;;;;;;5030487;28;20025;-67
2021/07/10 02:41:57;;;;;;;28.13;21.98;;;14.70;99.90;;;;;;5031637;28;20029;-67
2021/07/10 02:44:25;;;;;;;25.83;18.58;;;14.70;99.90;;;;;;5030715;28;20025;-67
2021/07/10 02:46:54;;;;;;;21.50;19.20;;;14.70;99.90;;;;;;5028366;28;20461;-67
2021/07/10 02:49:22;;;;;;;24.23;19.42;;;14.60;99.90;;;;;;5028007;28;20094;-67
2021/07/10 02:51:50;;;;;;;22.23;18.77;;;14.60;99.90;;;;;;5028303;28;20041;-67
2021/07/10 02:54:15;;;;;;;34.63;20.70;;;14.60;99.90;;;;;;5027043;28;20126;-67
2021/07/10 02:56:41;;;;;;;35.22;22.13;;;14.60;99.90;;;;;;5025047;28;20494;-67
2021/07/10 02:59:08;;;;;;;24.38;18.27;;;14.60;99.90;;;;;;5028861;28;20037;-67
2021/07/10 03:01:34;;;;;;;22.42;19.10;;;14.60;99.90;;;;;;5030471;28;20037;-67
2021/07/10 03:04:03;;;;;;;23.98;20.05;;;14.50;99.90;;;;;;5028107;28;20036;-67
2021/07/10 03:06:31;;;;;;;22.58;19.30;;;14.50;99.90;;;;;;5026971;28;20122;-67
2021/07/10 03:08:56;;;;;;;24.25;18.75;;;14.50;99.90;;;;;;5026855;28;20025;-67
2021/07/10 03:11:22;;;;;;;24.48;20.52;;;14.50;99.90;;;;;;5028195;28;20344;-68
2021/07/10 03:13:47;;;;;;;23.90;19.98;;;14.50;99.90;;;;;;5027773;28;20048;-67
2021/07/10 03:16:13;;;;;;;31.95;20.10;;;14.50;99.90;;;;;;5028566;28;20521;-68
2021/07/10 03:18:39;;;;;;;37.30;22.50;;;14.50;99.90;;;;;;5059727;28;20040;-69
2021/07/10 03:21:04;;;;;;;29.98;21.20;;;14.40;99.90;;;;;;5028364;28;20060;-67
2021/07/10 03:23:30;;;;;;;29.98;22.05;;;14.40;99.90;;;;;;5027824;28;20025;-67
2021/07/10 03:25:58;;;;;;;24.75;20.10;;;14.40;99.90;;;;;;5060948;28;20033;-67
2021/07/10 03:28:26;;;;;;;29.83;21.60;;;14.40;99.90;;;;;;5029061;28;20033;-67
2021/07/10 03:30:53;;;;;;;29.15;22.48;;;14.40;99.90;;;;;;5027432;28;20040;-67
2021/07/10 03:33:23;;;;;;;30.60;21.60;;;14.40;99.90;;;;;;5027572;28;20037;-67
2021/07/10 03:35:51;;;;;;;27.23;21.75;;;14.40;99.90;;;;;;5026631;28;20026;-69
2021/07/10 03:38:19;;;;;;;24.25;20.23;;;14.40;99.90;;;;;;5027959;28;20580;-69
2021/07/10 03:40:45;;;;;;;27.85;21.23;;;14.40;99.90;;;;;;5027436;28;20490;-69
2021/07/10 03:43:15;;;;;;;25.45;19.88;;;14.40;99.90;;;;;;5016948;28;20038;-70
2021/07/10 03:45:45;;;;;;;29.77;21.27;;;14.40;99.90;;;;;;5027733;28;20156;-70
2021/07/10 03:48:11;;;;;;;22.98;18.63;;;14.30;99.90;;;;;;5027993;28;20037;-69
2021/07/10 03:50:37;;;;;;;25.83;21.23;;;14.30;99.90;;;;;;5027822;28;20029;-69
2021/07/10 03:53:05;;;;;;;23.92;19.23;;;14.30;99.90;;;;;;5025354;28;20434;-69
2021/07/10 03:55:31;;;;;;;24.65;20.10;;;14.30;99.90;;;;;;5027605;28;20084;-69
2021/07/10 03:57:56;;;;;;;27.05;22.27;;;14.30;99.90;;;;;;5026479;28;20443;-69
2021/07/10 04:00:22;;;;;;;28.42;22.92;;;14.30;99.90;;;;;;5027511;28;20497;-69
2021/07/10 04:02:51;;;;;;;31.75;24.48;;;14.30;99.90;;;;;;5027359;28;20489;-69
2021/07/10 04:05:19;;;;;;;30.52;23.13;;;14.30;99.90;;;;;;5027072;28;20410;-68
2021/07/10 04:07:44;;;;;;;54.40;25.15;;;14.30;99.90;;;;;;5028353;28;20057;-69
2021/07/10 04:10:10;;;;;;;28.33;22.83;;;14.30;99.90;;;;;;5027814;28;20577;-69
2021/07/10 04:12:39;;;;;;;28.30;20.67;;;14.30;99.90;;;;;;5025748;28;20024;-69
2021/07/10 04:15:07;;;;;;;33.67;23.40;;;14.30;99.90;;;;;;5009765;28;20040;-69
2021/07/10 04:17:35;;;;;;;33.03;23.52;;;14.30;99.90;;;;;;5026562;28;20765;-69
2021/07/10 04:20:06;;;;;;;29.92;22.15;;;14.40;99.90;;;;;;5026433;28;20611;-69
2021/07/10 04:22:32;;;;;;;33.60;23.63;;;14.40;99.90;;;;;;5008762;28;20029;-69
2021/07/10 04:25:03;;;;;;;37.45;25.30;;;14.40;99.90;;;;;;5027501;28;20043;-69
2021/07/10 04:27:31;;;;;;;37.53;24.23;;;14.40;99.90;;;;;;5026073;28;20115;-69
2021/07/10 04:30:00;;;;;;;32.78;24.10;;;14.40;99.90;;;;;;5026709;28;20083;-69
2021/07/10 04:32:26;;;;;;;26.30;20.35;;;14.40;99.90;;;;;;5025569;28;20116;-69
2021/07/10 04:34:51;;;;;;;27.90;22.52;;;14.50;99.90;;;;;;5027611;28;20066;-69
2021/07/10 04:37:19;;;;;;;29.35;22.15;;;14.50;99.90;;;;;;5009405;28;20039;-69
2021/07/10 04:39:45;;;;;;;27.02;21.45;;;14.50;99.90;;;;;;5026652;28;20033;-69
2021/07/10 04:42:13;;;;;;;32.17;23.85;;;14.60;99.90;;;;;;5026164;28;20021;-69
2021/07/10 04:44:41;;;;;;;28.70;22.77;;;14.60;99.90;;;;;;5025455;28;20467;-69
2021/07/10 04:47:06;;;;;;;33.17;23.38;;;14.60;99.90;;;;;;5027392;28;20029;-69
2021/07/10 04:49:32;;;;;;;37.25;24.88;;;14.70;99.90;;;;;;5027854;28;20336;-69
2021/07/10 04:52:01;;;;;;;28.20;22.48;;;14.70;99.90;;;;;;5025524;28;20044;-70
2021/07/10 04:54:27;;;;;;;24.08;20.27;;;14.80;99.90;;;;;;5025111;28;20116;-69
2021/07/10 04:56:53;;;;;;;31.65;24.13;;;14.80;99.90;;;;;;5028228;28;20097;-69
2021/07/10 04:59:18;;;;;;;26.13;22.77;;;14.90;99.90;;;;;;5027169;28;20156;-69
2021/07/10 05:01:44;;;;;;;25.40;22.58;;;14.90;99.90;;;;;;5025429;28;20021;-70
2021/07/10 05:04:11;;;;;;;29.58;22.88;;;15.00;99.90;;;;;;5026254;28;20033;-70
2021/07/10 05:06:42;;;;;;;36.50;29.05;;;15.10;99.90;;;;;;5040418;28;20037;-69
2021/07/10 05:09:10;;;;;;;32.33;26.10;;;15.10;99.90;;;;;;5026485;28;20142;-69
2021/07/10 05:11:38;;;;;;;38.80;29.23;;;15.10;99.90;;;;;;5025886;28;20025;-69
2021/07/10 05:14:04;;;;;;;36.83;27.35;;;15.20;99.90;;;;;;5025430;28;20039;-69
2021/07/10 05:16:30;;;;;;;41.80;27.88;;;15.20;99.90;;;;;;5026596;28;20029;-70
2021/07/10 05:19:00;;;;;;;39.55;28.25;;;15.30;99.90;;;;;;5025873;28;20049;-68
2021/07/10 05:21:26;;;;;;;33.58;27.08;;;15.30;99.90;;;;;;5025182;28;20026;-67
2021/07/10 05:23:51;;;;;;;26.50;23.15;;;15.40;99.90;;;;;;5024552;28;20029;-68
2021/07/10 05:26:17;;;;;;;30.88;25.30;;;15.50;99.90;;;;;;5026007;28;20099;-67
2021/07/10 05:28:45;;;;;;;29.50;23.88;;;15.50;99.90;;;;;;4991712;28;20559;-67
2021/07/10 05:31:11;;;;;;;34.00;27.38;;;15.60;99.90;;;;;;5025309;28;20037;-67
2021/07/10 05:33:39;;;;;;;47.22;29.40;;;15.70;99.90;;;;;;5025760;28;20029;-67
2021/07/10 05:36:06;;;;;;;42.45;29.58;;;15.70;99.90;;;;;;5024291;28;20450;-67
2021/07/10 05:38:34;;;;;;;44.70;28.60;;;15.80;99.90;;;;;;5007954;28;20044;-67
2021/07/10 05:41:02;;;;;;;36.78;26.77;;;15.90;99.90;;;;;;5009204;28;20144;-67
2021/07/10 05:43:30;;;;;;;46.90;29.77;;;15.90;99.90;;;;;;5025759;28;20044;-67
2021/07/10 05:45:56;;;;;;;59.25;31.60;;;15.90;99.90;;;;;;5025089;28;20033;-66
2021/07/10 05:48:22;;;;;;;41.58;28.17;;;16.00;99.90;;;;;;5025513;28;20068;-68
2021/07/10 05:50:50;;;;;;;51.50;29.90;;;16.10;99.90;;;;;;5010436;28;20029;-69
2021/07/10 05:53:15;;;;;;;40.70;28.42;;;16.20;99.90;;;;;;5025356;28;20061;-69
2021/07/10 05:55:43;;;;;;;50.42;34.08;;;16.20;99.90;;;;;;5025225;28;20120;-68
2021/07/10 05:58:09;;;;;;;41.40;27.90;;;16.30;99.90;;;;;;5026348;28;20168;-68
2021/07/10 06:00:41;;;;;;;38.72;27.92;;;16.40;99.90;;;;;;5025603;28;20036;-68
2021/07/10 06:03:07;;;;;;;39.45;26.58;;;16.40;99.90;;;;;;5025170;28;20040;-68
2021/07/10 06:05:33;;;;;;;43.15;29.33;;;16.50;99.90;;;;;;5025875;28;20037;-71
2021/07/10 06:07:58;;;;;;;49.55;29.98;;;16.60;99.90;;;;;;5057352;28;20135;-70
2021/07/10 06:10:26;;;;;;;50.72;31.98;;;16.70;99.90;;;;;;5024631;28;20470;-70
2021/07/10 06:12:52;;;;;;;37.92;27.23;;;16.70;99.90;;;;;;5021678;28;20134;-70
2021/07/10 06:15:20;;;;;;;45.85;28.55;;;16.80;99.90;;;;;;5024655;28;20386;-70
2021/07/10 06:17:45;;;;;;;44.55;29.20;;;16.80;99.90;;;;;;5024186;28;20048;-70
2021/07/10 06:20:14;;;;;;;59.75;30.50;;;16.90;99.90;;;;;;5023589;28;20017;-70
2021/07/10 06:22:40;;;;;;;85.43;48.95;;;17.00;99.90;;;;;;5023814;28;20112;-70
2021/07/10 06:25:07;;;;;;;56.88;34.80;;;17.00;99.90;;;;;;5024073;28;20049;-71
2021/07/10 06:27:34;;;;;;;44.75;28.77;;;17.10;99.90;;;;;;5025157;28;20156;-71
2021/07/10 06:30:06;;;;;;;47.85;29.27;;;17.10;99.90;;;;;;5024477;28;20029;-71
2021/07/10 06:32:31;;;;;;;46.25;28.73;;;17.20;99.90;;;;;;5026172;28;20140;-71
2021/07/10 06:34:57;;;;;;;46.83;29.05;;;17.20;99.90;;;;;;5023551;28;20777;-71
2021/07/10 06:37:25;;;;;;;42.85;28.70;;;17.30;99.90;;;;;;5024327;28;20026;-71
2021/07/10 06:39:53;;;;;;;44.28;28.20;;;17.30;99.90;;;;;;4331049;28;10021516;-70
2021/07/10 06:42:20;;;;;;;43.35;28.20;;;17.40;99.90;;;;;;5023054;28;20056;-71
2021/07/10 06:44:46;;;;;;;39.45;27.00;;;17.50;99.90;;;;;;5022614;28;20116;-70
2021/07/10 06:47:14;;;;;;;47.20;30.45;;;17.50;99.90;;;;;;5056756;28;20021;-71
2021/07/10 06:49:42;;;;;;;38.95;28.17;;;17.60;99.90;;;;;;5005397;28;20029;-70
2021/07/10 06:52:10;;;;;;;44.50;29.95;;;17.60;99.90;;;;;;5022729;28;20030;-72
2021/07/10 06:54:35;;;;;;;39.70;29.05;;;17.70;99.90;;;;;;5024455;28;20036;-70
2021/07/10 06:57:03;;;;;;;47.85;30.67;;;17.70;99.90;;;;;;5022937;28;20053;-71
2021/07/10 06:59:29;;;;;;;43.17;28.88;;;17.80;99.90;;;;;;5008635;28;20034;-70
2021/07/10 07:01:55;;;;;;;43.20;29.98;;;17.80;99.90;;;;;;5055689;28;20030;-70
2021/07/10 07:04:20;;;;;;;40.42;28.52;;;17.80;99.90;;;;;;5024403;28;20116;-70
2021/07/10 07:06:46;;;;;;;45.25;29.60;;;17.90;99.90;;;;;;5057154;28;20352;-70
2021/07/10 07:09:12;;;;;;;37.30;27.58;;;17.90;99.90;;;;;;5023779;28;20041;-71
2021/07/10 07:11:37;;;;;;;43.22;30.23;;;18.00;99.90;;;;;;5024691;28;20032;-71
2021/07/10 07:14:10;;;;;;;43.63;30.33;;;18.00;99.90;;;;;;5022758;28;20037;-71
2021/07/10 07:16:38;;;;;;;45.55;31.48;;;18.00;99.90;;;;;;5024398;28;20105;-72
2021/07/10 07:19:06;;;;;;;47.88;32.35;;;18.10;99.90;;;;;;5026520;28;20041;-73
2021/07/10 07:21:34;;;;;;;45.60;31.90;;;18.10;99.90;;;;;;5028190;28;20057;-69
2021/07/10 07:24:00;;;;;;;46.10;31.75;;;18.20;99.90;;;;;;5027694;28;20032;-69
2021/07/10 07:26:28;;;;;;;65.50;50.22;;;18.20;99.90;;;;;;5027494;28;20048;-69
2021/07/10 07:28:55;;;;;;;44.03;30.20;;;18.30;99.90;;;;;;5028514;28;20114;-69
2021/07/10 07:31:21;;;;;;;58.42;43.30;;;18.40;99.90;;;;;;5027193;28;20566;-70
2021/07/10 07:33:47;;;;;;;111.38;74.72;;;18.40;99.90;;;;;;5025834;28;20099;-69
2021/07/10 07:36:15;;;;;;;47.72;34.60;;;18.50;99.90;;;;;;5026377;28;20029;-71
2021/07/10 07:38:41;;;;;;;42.50;32.47;;;18.50;99.90;;;;;;5026049;28;20028;-70
2021/07/10 07:41:07;;;;;;;45.45;34.30;;;18.50;99.90;;;;;;5009350;28;20048;-71
2021/07/10 07:43:32;;;;;;;47.35;35.55;;;18.50;99.90;;;;;;5026820;28;20021;-71
2021/07/10 07:46:01;;;;;;;47.72;35.97;;;18.50;99.90;;;;;;5026447;28;20029;-71
2021/07/10 07:48:30;;;;;;;43.92;35.45;;;18.60;99.90;;;;;;5026806;28;20044;-70
2021/07/10 07:50:56;;;;;;;49.97;37.35;;;18.90;99.90;;;;;;5024483;28;20026;-70
2021/07/10 07:53:24;;;;;;;48.50;40.27;;;18.80;99.90;;;;;;4678172;28;10000371;-70
2021/07/10 07:55:55;;;;;;;45.83;36.13;;;19.00;99.90;;;;;;5025765;28;20037;-67
2021/07/10 07:58:23;;;;;;;57.70;45.85;;;19.10;99.90;;;;;;5027709;28;20091;-66
2021/07/10 08:00:49;;;;;;;52.28;41.15;;;19.30;99.90;;;;;;5024749;28;20076;-66
2021/07/10 08:03:15;;;;;;;47.25;40.30;;;19.40;99.90;;;;;;5026704;28;20715;-66
2021/07/10 08:05:42;;;;;;;49.90;41.58;;;19.60;99.90;;;;;;5027136;28;20168;-67
2021/07/10 08:08:11;;;;;;;52.95;40.22;;;19.70;99.90;;;;;;5026789;28;20033;-66
2021/07/10 08:10:36;;;;;;;48.88;40.33;;;19.80;99.90;;;;;;5026513;28;20029;-68
2021/07/10 08:13:04;;;;;;;48.08;39.50;;;19.90;99.90;;;;;;5026635;28;20026;-69
2021/07/10 08:15:32;;;;;;;44.05;37.25;;;19.90;99.90;;;;;;5027387;28;20108;-68
2021/07/10 08:17:58;;;;;;;42.08;35.95;;;19.90;99.90;;;;;;5024324;28;20037;-68
2021/07/10 08:20:24;;;;;;;37.00;32.65;;;19.80;99.90;;;;;;5026682;28;20052;-69
2021/07/10 08:22:52;;;;;;;28.23;24.73;;;20.00;99.90;;;;;;5026953;28;20909;-68
2021/07/10 08:25:18;;;;;;;29.25;24.33;;;20.00;99.90;;;;;;5025891;28;20108;-69
2021/07/10 08:27:46;;;;;;;25.30;22.70;;;20.00;99.90;;;;;;5024529;28;20538;-68
2021/07/10 08:30:16;;;;;;;28.75;25.65;;;20.10;99.90;;;;;;5024505;28;20502;-68
2021/07/10 08:32:43;;;;;;;30.90;26.58;;;20.30;99.90;;;;;;5026978;28;20051;-68
2021/07/10 08:35:10;;;;;;;31.80;26.55;;;20.40;99.90;;;;;;5024945;28;20063;-68
2021/07/10 08:37:35;;;;;;;24.20;21.25;;;20.50;99.90;;;;;;5025437;28;20029;-71
2021/07/10 08:40:02;;;;;;;33.50;29.25;;;20.60;99.90;;;;;;5026803;28;20031;-68
2021/07/10 08:42:28;;;;;;;27.73;23.20;;;20.70;99.90;;;;;;5058030;28;20111;-69
2021/07/10 08:44:53;;;;;;;26.33;22.92;;;20.70;99.90;;;;;;5026128;28;20113;-68
2021/07/10 08:47:22;;;;;;;24.02;20.35;;;20.70;99.90;;;;;;5008408;28;20021;-68
2021/07/10 08:49:50;;;;;;;21.58;19.27;;;20.80;99.90;;;;;;5039797;28;20117;-68
2021/07/10 08:52:18;;;;;;;22.73;19.23;;;20.90;99.90;;;;;;5025183;28;20025;-68
2021/07/10 08:54:46;;;;;;;20.50;18.08;;;20.80;99.90;;;;;;5020093;28;20469;-68
2021/07/10 08:57:13;;;;;;;20.20;17.75;;;20.80;99.90;;;;;;5025392;28;20113;-69
2021/07/10 08:59:39;;;;;;;21.60;19.30;;;20.90;99.90;;;;;;5025210;28;20726;-68
2021/07/10 09:02:07;;;;;;;20.40;17.95;;;21.00;99.90;;;;;;5025514;28;20033;-69
2021/07/10 09:04:33;;;;;;;20.40;18.10;;;21.10;99.90;;;;;;5026467;28;20061;-68
2021/07/10 09:06:58;;;;;;;21.33;19.02;;;21.10;99.90;;;;;;5025774;28;20104;-68
2021/07/10 09:09:43;;;;;;;18.67;16.67;;;21.10;99.90;;;;;;5026115;28;20033;-68
2021/07/10 09:12:09;;;;;;;19.73;17.42;;;21.10;99.90;;;;;;5024045;28;20025;-68
2021/07/10 09:14:39;;;;;;;21.23;18.92;;;21.00;99.90;;;;;;5022852;28;20052;-68
2021/07/10 09:17:23;;;;;;;17.33;15.45;;;21.10;99.90;;;;;;5026884;28;20438;-73
2021/07/10 09:19:54;;;;;;;20.53;16.20;;;21.00;99.90;;;;;;4331035;28;10001543;-73
2021/07/10 09:22:25;;;;;;;17.73;15.15;;;21.00;99.90;;;;;;5026160;28;20278;-72
2021/07/10 09:24:50;;;;;;;16.42;14.65;;;21.10;99.90;;;;;;5006909;28;20454;-73
2021/07/10 09:27:16;;;;;;;14.80;13.00;;;21.20;99.90;;;;;;5025421;28;20052;-73
2021/07/10 09:29:48;;;;;;;15.40;13.23;;;21.20;99.90;;;;;;5022895;28;20022;-73
2021/07/10 09:32:19;;;;;;;;;;;21.20;99.90;;;;;;5024650;28;20038;-72
2021/07/10 09:34:50;;;;;;;17.58;13.52;;;21.10;99.90;;;;;;5026110;28;19916;-73
2021/07/10 09:37:17;;;;;;;16.00;14.38;;;21.10;99.90;;;;;;5057133;28;20501;-73
2021/07/10 09:39:44;;;;;;;14.70;12.68;;;21.10;99.90;;;;;;5024854;28;20033;-71
2021/07/10 09:42:11;;;;;;;34.75;29.33;;;21.20;99.90;;;;;;5024852;28;20483;-71
2021/07/10 09:44:39;;;;;;;15.23;13.00;;;21.20;99.90;;;;;;5024605;28;20121;-73
2021/07/10 09:47:05;;;;;;;14.30;12.65;;;21.10;99.90;;;;;;5025517;28;20448;-72
2021/07/10 09:49:31;;;;;;;17.73;14.43;;;21.20;99.90;;;;;;5027101;28;20528;-73
2021/07/10 09:52:06;;;;;;;17.67;13.85;;;21.10;99.90;;;;;;5024681;28;20398;-73
2021/07/10 09:54:41;;;;;;;15.75;13.38;;;21.30;99.90;;;;;;5030276;28;20024;-73
2021/07/10 09:57:15;;;;;;;14.27;12.77;;;21.40;99.90;;;;;;5040891;28;20049;-73
2021/07/10 09:59:54;;;;;;;12.85;11.43;;;21.70;99.90;;;;;;5023126;28;20033;-73
2021/07/10 10:02:43;;;;;;;13.85;12.32;;;21.90;99.90;;;;;;5057189;28;20081;-72
2021/07/10 10:05:16;;;;;;;13.52;12.13;;;22.00;99.90;;;;;;5023403;28;20025;-73
2021/07/10 10:07:46;;;;;;;15.30;13.38;;;22.20;99.90;;;;;;5056966;28;20029;-73
2021/07/10 10:10:25;;;;;;;15.35;12.75;;;22.20;99.90;;;;;;5008933;28;20167;-73
2021/07/10 10:13:08;;;;;;;14.07;12.48;;;22.20;99.90;;;;;;5024610;28;20196;-73
2021/07/10 10:15:35;;;;;;;13.35;11.23;;;22.20;99.90;;;;;;5025344;28;20037;-73
2021/07/10 10:18:01;;;;;;;14.52;11.10;;;22.20;99.90;;;;;;5025280;28;20076;-73
2021/07/10 10:20:29;;;;;;;14.15;12.38;;;22.30;99.90;;;;;;5024796;28;20205;-73
2021/07/10 10:22:57;;;;;;;14.75;11.55;;;22.30;99.90;;;;;;5005584;28;20034;-73
2021/07/10 10:25:23;;;;;;;14.98;11.27;;;22.30;99.90;;;;;;5008249;28;20064;-73
2021/07/10 10:27:52;;;;;;;14.55;11.85;;;22.40;99.90;;;;;;5025151;28;20039;-73
2021/07/10 10:30:18;;;;;;;14.45;12.98;;;22.40;99.90;;;;;;5023597;28;20056;-73
2021/07/10 10:32:44;;;;;;;16.77;12.57;;;22.40;99.90;;;;;;5023545;28;20103;-73
2021/07/10 10:35:09;;;;;;;16.42;13.27;;;22.40;99.90;;;;;;5023554;28;20045;-73
2021/07/10 10:37:37;;;;;;;14.65;11.10;;;22.40;99.90;;;;;;5025071;28;20061;-73
2021/07/10 10:40:13;;;;;;;13.93;11.10;;;22.40;99.90;;;;;;5024814;28;20041;-73
2021/07/10 10:42:39;;;;;;;13.60;11.40;;;22.30;99.90;;;;;;5009254;28;20040;-73
2021/07/10 10:45:07;;;;;;;12.35;10.57;;;22.30;99.90;;;;;;5024652;28;20575;-73
2021/07/10 10:47:50;;;;;;;10.90;9.73;;;22.40;99.90;;;;;;5022485;28;20037;-74
2021/07/10 10:50:20;;;;;;;11.88;9.60;;;22.60;99.90;;;;;;5023096;28;20111;-73
2021/07/10 10:52:46;;;;;;;10.77;9.57;;;22.60;99.90;;;;;;5060604;28;20017;-74
2021/07/10 10:55:18;;;;;;;19.77;16.60;;;22.80;99.90;;;;;;5015540;28;20534;-71
2021/07/10 10:58:03;;;;;;;13.10;11.20;;;22.40;92.90;;;;;;5028711;28;20052;-71
2021/07/10 11:00:36;;;;;;;12.15;10.70;;;22.50;98.60;;;;;;5027061;28;20190;-72
2021/07/10 11:03:32;;;;;;;13.25;10.05;;;22.60;99.90;;;;;;5001049;28;20025;-73
2021/07/10 11:05:58;;;;;;;11.70;9.68;;;22.70;99.90;;;;;;5026973;28;20638;-73
2021/07/10 11:08:29;;;;;;;11.25;9.38;;;22.90;99.90;;;;;;5028045;28;20087;-73
2021/07/10 11:10:57;;;;;;;12.18;10.70;;;23.00;99.90;;;;;;5010239;28;20029;-73
2021/07/10 11:13:35;;;;;;;14.48;10.68;;;23.10;99.90;;;;;;5029701;28;20386;-73
2021/07/10 11:16:15;;;;;;;10.15;8.48;;;23.10;99.90;;;;;;5025479;28;20037;-74
2021/07/10 11:18:50;;;;;;;12.05;8.60;;;23.00;96.10;;;;;;5026132;28;20025;-74
2021/07/10 11:21:34;;;;;;;8.50;7.35;;;23.20;99.90;;;;;;5028184;28;20113;-72
2021/07/10 11:26:44;;;;;;;13.63;9.57;;;23.20;99.90;;;;;;5027973;28;20025;-69
2021/07/10 11:29:36;;;;;;;10.48;9.07;;;23.10;99.90;;;;;;5028243;28;20482;-69
2021/07/10 11:32:25;;;;;;;10.43;8.10;;;23.20;99.90;;;;;;5026426;28;20029;-69
2021/07/10 11:34:56;;;;;;;9.48;8.48;;;23.30;99.90;;;;;;5026874;28;20750;-69
2021/07/10 11:37:25;;;;;;;9.25;8.15;;;23.20;93.60;;;;;;5029582;28;20567;-69
2021/07/10 11:39:55;;;;;;;13.27;11.90;;;23.20;99.90;;;;;;5026350;28;20067;-70
2021/07/10 11:42:22;;;;;;;14.25;12.82;;;23.30;99.90;;;;;;5027987;28;20530;-70
2021/07/10 11:44:49;;;;;;;9.98;8.10;;;23.10;95.50;;;;;;5027380;28;20029;-72
2021/07/10 11:47:31;;;;;;;31.15;28.08;;;23.00;98.60;;;;;;5011167;28;20033;-71
2021/07/10 11:49:57;;;;;;;68.97;53.17;;;23.30;99.90;;;;;;5027599;28;20025;-70
2021/07/10 11:52:23;;;;;;;23.17;20.40;;;23.30;95.20;;;;;;5026378;28;20034;-71
2021/07/10 11:54:54;;;;;;;13.88;10.98;;;23.30;98.00;;;;;;5027532;28;20119;-71
2021/07/10 11:57:20;;;;;;;10.18;8.70;;;23.30;96.20;;;;;;5026909;28;20616;-70
2021/07/10 11:59:53;;;;;;;10.45;7.65;;;23.40;95.80;;;;;;5027039;28;20044;-70
2021/07/10 12:02:24;;;;;;;8.93;6.80;;;23.50;96.10;;;;;;5058788;28;20033;-71
2021/07/10 12:05:09;;;;;;;8.77;6.72;;;23.30;83.60;;;;;;5026779;28;20026;-72
2021/07/10 12:07:42;;;;;;;8.50;6.70;;;23.20;83.70;;;;;;5027656;28;20053;-70
2021/07/10 12:10:13;;;;;;;8.50;7.00;;;23.20;99.20;;;;;;4989073;28;20474;-70
2021/07/10 12:12:54;;;;;;;7.53;6.60;;;23.10;91.70;;;;;;5027683;28;20022;-72
2021/07/10 12:15:41;;;;;;;8.10;6.93;;;23.30;99.90;;;;;;5026109;28;20033;-71
2021/07/10 12:18:09;;;;;;;8.65;6.80;;;23.30;93.40;;;;;;5026814;28;20033;-70
2021/07/10 12:20:48;;;;;;;8.82;6.25;;;23.40;94.30;;;;;;5027305;28;20100;-71
2021/07/10 12:23:30;;;;;;;7.32;5.45;;;23.70;99.90;;;;;;5027169;28;20029;-70
2021/07/10 12:26:07;;;;;;;7.57;5.40;;;23.80;78.80;;;;;;5026764;28;20037;-70
2021/07/10 12:28:45;;;;;;;7.68;5.43;;;23.90;91.30;;;;;;5010404;28;20072;-71
2021/07/10 12:31:15;;;;;;;6.63;5.25;;;24.10;90.60;;;;;;5024918;28;20478;-71
2021/07/10 12:34:13;;;;;;;7.80;5.90;;;24.30;93.30;;;;;;5042686;28;20041;-71
2021/07/10 12:36:40;;;;;;;8.90;7.00;;;24.50;93.70;;;;;;5055196;28;20130;-70
2021/07/10 12:39:17;;;;;;;6.93;4.82;;;24.50;91.20;;;;;;5026300;28;20047;-70